Time;durP1;ratioP1;P1;durP2;ratioP2;P2;SDS_P1;SDS_P2;PMS_P1;PMS_P2;Temp;Humidity;BMP_temperature;BMP_pressure;BME280_temperature;BME280_humidity;BME280_pressure;Samples;Min_cycle;Max_cycle;Signal;HPM_P1;HPM_P2
2021/05/30 00:01:48;;;;;;;2.28;1.55;;;12.30;99.90;;;;;;5073576;28;20024;-81
2021/05/30 00:04:13;;;;;;;2.30;1.42;;;12.10;99.90;;;;;;5073301;28;20025;-81
2021/05/30 00:06:39;;;;;;;2.38;1.40;;;12.30;99.90;;;;;;5071987;28;20060;-82
2021/05/30 00:09:06;;;;;;;2.22;1.30;;;12.20;99.90;;;;;;5071968;28;20111;-81
2021/05/30 00:11:35;;;;;;;4.13;1.48;;;12.30;99.90;;;;;;5073218;28;20024;-82
2021/05/30 00:14:04;;;;;;;2.28;1.42;;;11.60;99.90;;;;;;5071895;28;20033;-82
2021/05/30 00:16:31;;;;;;;3.75;1.80;;;11.60;99.90;;;;;;5075226;28;20020;-81
2021/05/30 00:18:58;;;;;;;3.28;1.65;;;11.70;99.90;;;;;;5076292;28;20036;-82
2021/05/30 00:21:24;;;;;;;5.05;1.50;;;11.60;99.90;;;;;;5077279;28;20024;-81
2021/05/30 00:23:50;;;;;;;3.15;1.50;;;11.60;99.90;;;;;;5075970;28;20020;-82
2021/05/30 00:26:15;;;;;;;5.20;1.73;;;11.60;99.90;;;;;;5075903;28;20031;-81
2021/05/30 00:28:41;;;;;;;2.78;1.70;;;11.60;99.90;;;;;;5075877;28;20031;-82
2021/05/30 00:31:07;;;;;;;3.42;1.67;;;11.50;99.90;;;;;;5075809;28;20056;-81
2021/05/30 00:33:32;;;;;;;3.45;1.70;;;11.90;99.90;;;;;;5075587;28;20046;-81
2021/05/30 00:35:58;;;;;;;4.65;1.50;;;11.70;99.90;;;;;;5076871;28;20036;-82
2021/05/30 00:38:24;;;;;;;5.20;1.90;;;11.90;99.90;;;;;;5075674;28;20043;-82
2021/05/30 00:40:51;;;;;;;3.35;1.70;;;11.50;99.90;;;;;;5076841;28;20017;-81
2021/05/30 00:43:17;;;;;;;2.40;1.50;;;11.20;99.90;;;;;;5075558;28;20028;-82
2021/05/30 00:45:44;;;;;;;5.53;1.50;;;11.10;99.90;;;;;;5076765;28;20098;-81
2021/05/30 00:48:10;;;;;;;4.05;1.50;;;11.40;99.90;;;;;;5076745;28;20020;-82
2021/05/30 00:50:35;;;;;;;5.72;1.70;;;11.60;99.90;;;;;;5075423;28;20419;-82
2021/05/30 00:53:02;;;;;;;2.75;1.33;;;11.50;99.90;;;;;;5075381;28;20017;-82
2021/05/30 00:55:28;;;;;;;5.70;1.40;;;11.70;99.90;;;;;;5075311;28;20024;-82
2021/05/30 00:57:53;;;;;;;2.90;1.52;;;11.60;99.90;;;;;;5076464;28;20055;-82
2021/05/30 01:00:19;;;;;;;2.15;1.67;;;11.60;99.90;;;;;;5075202;28;20024;-82
2021/05/30 01:02:45;;;;;;;2.40;1.50;;;11.50;99.90;;;;;;5076395;28;20044;-82
2021/05/30 01:05:12;;;;;;;2.75;1.42;;;11.40;99.90;;;;;;5075153;28;20048;-82
2021/05/30 01:07:42;;;;;;;2.63;1.50;;;11.60;99.90;;;;;;5076401;28;20025;-82
2021/05/30 01:10:29;;;;;;;1.92;1.63;;;11.40;99.90;;;;;;5076950;28;20432;-82
2021/05/30 01:12:57;;;;;;;5.25;1.70;;;11.10;99.90;;;;;;5075002;28;20433;-82
2021/05/30 01:15:24;;;;;;;2.58;1.70;;;11.00;99.90;;;;;;5076530;28;20020;-82
2021/05/30 01:17:53;;;;;;;2.05;1.30;;;11.00;99.90;;;;;;5076113;28;20435;-82
2021/05/30 01:20:19;;;;;;;3.42;1.50;;;11.50;99.90;;;;;;5074896;28;20476;-82
2021/05/30 01:22:46;;;;;;;1.88;1.30;;;11.60;99.90;;;;;;5076152;28;20021;-82
2021/05/30 01:25:18;;;;;;;2.53;1.42;;;11.70;99.90;;;;;;5074776;28;20511;-82
2021/05/30 01:27:44;;;;;;;1.80;1.40;;;11.50;99.90;;;;;;5076301;28;20056;-82
2021/05/30 01:30:11;;;;;;;4.53;1.48;;;11.40;99.90;;;;;;5074708;28;20123;-82
2021/05/30 01:32:37;;;;;;;1.83;1.30;;;11.30;99.90;;;;;;5075955;28;20373;-82
2021/05/30 01:35:05;;;;;;;4.43;1.38;;;11.20;99.90;;;;;;5074420;28;20105;-82
2021/05/30 01:37:30;;;;;;;3.08;1.60;;;11.10;99.90;;;;;;5075794;28;20017;-82
2021/05/30 01:39:56;;;;;;;3.40;1.77;;;11.20;99.90;;;;;;5075782;28;20025;-82
2021/05/30 01:42:22;;;;;;;1.75;1.42;;;11.40;99.90;;;;;;5074471;28;20056;-82
2021/05/30 01:44:47;;;;;;;3.55;1.33;;;11.30;99.90;;;;;;5075713;28;20020;-82
2021/05/30 01:47:13;;;;;;;3.85;1.50;;;11.50;99.90;;;;;;5074305;28;20036;-82
2021/05/30 01:49:40;;;;;;;3.17;1.30;;;11.50;99.90;;;;;;5074376;28;20115;-82
2021/05/30 01:52:07;;;;;;;2.28;1.50;;;11.40;99.90;;;;;;5075594;28;20492;-82
2021/05/30 01:54:35;;;;;;;4.97;1.60;;;11.50;99.90;;;;;;5075597;28;20615;-82
2021/05/30 01:57:07;;;;;;;3.83;1.50;;;11.50;99.90;;;;;;5074119;28;20025;-82
2021/05/30 01:59:33;;;;;;;2.03;1.45;;;11.30;99.90;;;;;;5075489;28;20488;-82
2021/05/30 02:01:59;;;;;;;2.17;1.40;;;11.40;99.90;;;;;;5075638;28;20104;-82
2021/05/30 02:04:38;;;;;;;8.02;1.55;;;11.40;99.90;;;;;;5074053;28;20111;-82
2021/05/30 02:07:04;;;;;;;3.72;1.42;;;11.30;99.90;;;;;;5074278;28;20115;-82
2021/05/30 02:09:31;;;;;;;3.67;1.40;;;11.10;99.90;;;;;;5074003;28;20032;-82
2021/05/30 02:11:58;;;;;;;3.90;1.45;;;11.00;99.90;;;;;;5074180;28;20522;-82
2021/05/30 02:14:24;;;;;;;2.22;1.45;;;11.40;99.90;;;;;;5073853;28;20032;-82
2021/05/30 02:16:50;;;;;;;2.42;1.50;;;11.10;99.90;;;;;;5075019;28;20064;-82
2021/05/30 02:19:16;;;;;;;1.73;1.10;;;10.90;99.90;;;;;;5073794;28;20032;-82
2021/05/30 02:21:47;;;;;;;2.40;1.33;;;11.30;99.90;;;;;;5074997;28;20028;-82
2021/05/30 02:24:15;;;;;;;2.72;1.48;;;10.80;99.90;;;;;;5073718;28;20055;-82
2021/05/30 02:26:41;;;;;;;3.30;1.23;;;10.80;99.90;;;;;;5073612;28;20024;-82
2021/05/30 02:29:08;;;;;;;3.88;1.23;;;10.40;99.90;;;;;;5074821;28;20052;-82
2021/05/30 02:31:34;;;;;;;2.55;1.48;;;10.70;99.90;;;;;;5074788;28;20029;-82
2021/05/30 02:34:00;;;;;;;2.33;1.50;;;10.80;99.90;;;;;;5074559;28;20075;-82
2021/05/30 02:36:27;;;;;;;1.83;1.40;;;11.00;99.90;;;;;;5074630;28;20017;-82
2021/05/30 02:38:54;;;;;;;3.03;1.70;;;11.30;99.90;;;;;;5074131;28;20023;-82
2021/05/30 02:41:22;;;;;;;2.05;1.48;;;11.30;99.90;;;;;;5074596;28;20025;-82
2021/05/30 02:43:48;;;;;;;3.22;1.30;;;11.10;99.90;;;;;;5056916;28;20040;-82
2021/05/30 02:46:14;;;;;;;2.72;1.48;;;10.90;99.90;;;;;;5073173;28;20032;-82
2021/05/30 02:48:40;;;;;;;4.88;1.48;;;10.70;99.90;;;;;;5074425;28;20025;-82
2021/05/30 02:51:06;;;;;;;2.33;1.33;;;11.00;99.90;;;;;;5073167;28;20035;-82
2021/05/30 02:53:33;;;;;;;2.92;1.63;;;11.10;99.90;;;;;;5074619;28;20029;-82
2021/05/30 02:56:00;;;;;;;3.45;1.20;;;10.60;99.90;;;;;;5072980;28;20033;-82
2021/05/30 02:58:28;;;;;;;1.73;1.30;;;10.50;99.90;;;;;;5073027;28;20021;-82
2021/05/30 03:00:55;;;;;;;3.53;1.30;;;10.60;99.90;;;;;;5072967;28;20082;-82
2021/05/30 03:03:20;;;;;;;1.90;1.42;;;10.40;99.90;;;;;;5072931;28;20506;-82
2021/05/30 03:05:46;;;;;;;4.38;1.50;;;10.30;99.90;;;;;;5072895;28;20020;-82
2021/05/30 03:08:12;;;;;;;2.30;1.40;;;10.80;99.90;;;;;;5072807;28;20032;-82
2021/05/30 03:10:38;;;;;;;3.30;1.70;;;11.20;99.90;;;;;;5072718;28;20108;-82
2021/05/30 03:13:04;;;;;;;2.58;1.40;;;11.10;99.90;;;;;;5072744;28;20025;-82
2021/05/30 03:15:30;;;;;;;2.10;1.50;;;11.00;99.90;;;;;;5074207;28;20033;-82
2021/05/30 03:17:56;;;;;;;2.80;1.38;;;10.90;99.90;;;;;;5073801;28;20391;-82
2021/05/30 03:20:22;;;;;;;4.75;1.27;;;11.00;99.90;;;;;;5073841;28;20027;-82
2021/05/30 03:22:48;;;;;;;4.70;1.52;;;10.90;99.90;;;;;;5072548;28;20021;-82
2021/05/30 03:25:14;;;;;;;2.67;1.30;;;10.80;99.90;;;;;;5072524;28;20016;-82
2021/05/30 03:27:41;;;;;;;2.53;1.40;;;10.70;99.90;;;;;;5073718;28;20028;-82
2021/05/30 03:30:09;;;;;;;2.45;1.48;;;11.00;99.90;;;;;;5072425;28;20086;-82
2021/05/30 03:32:35;;;;;;;2.55;1.20;;;10.80;99.90;;;;;;5073666;28;20030;-82
2021/05/30 03:35:02;;;;;;;2.38;1.17;;;10.80;99.90;;;;;;5073506;28;20416;-82
2021/05/30 03:37:28;;;;;;;5.68;1.70;;;11.20;99.90;;;;;;5072265;28;20396;-82
2021/05/30 03:39:57;;;;;;;1.75;1.50;;;10.80;99.90;;;;;;5072313;28;20027;-82
2021/05/30 03:42:27;;;;;;;2.13;1.48;;;11.00;99.90;;;;;;5072260;28;20634;-82
2021/05/30 03:44:57;;;;;;;1.80;1.23;;;10.60;99.90;;;;;;5072249;28;20115;-82
2021/05/30 03:47:22;;;;;;;4.32;1.55;;;10.80;99.90;;;;;;5073430;28;20082;-82
2021/05/30 03:49:48;;;;;;;3.88;1.40;;;11.00;99.90;;;;;;5073036;28;20032;-82
2021/05/30 03:52:14;;;;;;;2.90;1.67;;;10.90;99.90;;;;;;5071699;28;20107;-82
2021/05/30 03:54:40;;;;;;;3.17;1.42;;;10.60;99.90;;;;;;5073437;28;20027;-82
2021/05/30 03:57:05;;;;;;;3.00;1.40;;;10.80;99.90;;;;;;5072040;28;20021;-82
2021/05/30 03:59:31;;;;;;;1.60;1.38;;;10.80;99.90;;;;;;5072115;28;20365;-82
2021/05/30 04:01:57;;;;;;;2.42;1.30;;;10.50;99.90;;;;;;5073384;28;20400;-82
2021/05/30 04:04:22;;;;;;;2.40;1.58;;;10.90;99.90;;;;;;5073289;28;20016;-82
2021/05/30 04:06:48;;;;;;;2.88;1.73;;;10.70;99.90;;;;;;5073237;28;20063;-82
2021/05/30 04:09:14;;;;;;;3.05;1.58;;;10.70;99.90;;;;;;5073525;28;20034;-82
2021/05/30 04:11:39;;;;;;;3.35;1.60;;;10.70;99.90;;;;;;5071974;28;20078;-82
2021/05/30 04:14:05;;;;;;;1.85;1.45;;;10.80;99.90;;;;;;5073188;28;20031;-82
2021/05/30 04:16:31;;;;;;;3.15;1.75;;;10.80;99.90;;;;;;5073117;28;20024;-82
2021/05/30 04:18:57;;;;;;;2.72;1.70;;;10.60;99.90;;;;;;5071886;28;20048;-82
2021/05/30 04:21:23;;;;;;;1.95;1.58;;;10.40;99.90;;;;;;5072102;28;20021;-82
2021/05/30 04:23:48;;;;;;;2.70;1.55;;;10.40;99.90;;;;;;5071874;28;20388;-82
2021/05/30 04:26:14;;;;;;;1.88;1.50;;;10.30;99.90;;;;;;5071833;28;20503;-82
2021/05/30 04:28:40;;;;;;;3.65;1.98;;;10.40;99.90;;;;;;5073072;28;20369;-81
2021/05/30 04:31:06;;;;;;;5.38;1.58;;;10.10;99.90;;;;;;5071772;28;20392;-82
2021/05/30 04:33:32;;;;;;;6.10;1.60;;;10.10;99.90;;;;;;5071539;28;20052;-82
2021/05/30 04:35:57;;;;;;;3.42;1.70;;;10.30;99.90;;;;;;5072885;28;20123;-82
2021/05/30 04:38:23;;;;;;;2.95;1.42;;;10.30;99.90;;;;;;5071653;28;20419;-81
2021/05/30 04:40:50;;;;;;;2.05;1.60;;;10.40;99.90;;;;;;5071657;28;20025;-81
2021/05/30 04:43:16;;;;;;;5.32;3.80;;;10.20;99.90;;;;;;5072933;28;20032;-82
2021/05/30 04:45:42;;;;;;;8.77;2.83;;;10.20;99.90;;;;;;5071557;28;20025;-81
2021/05/30 04:48:08;;;;;;;3.00;2.05;;;10.20;99.90;;;;;;5072873;28;20078;-82
2021/05/30 04:50:34;;;;;;;5.25;2.53;;;10.50;99.90;;;;;;5071623;28;20082;-81
2021/05/30 04:53:00;;;;;;;3.10;1.92;;;10.00;99.90;;;;;;5071589;28;20026;-82
2021/05/30 04:55:26;;;;;;;2.83;1.80;;;10.30;99.90;;;;;;5071541;28;20107;-82
2021/05/30 04:57:52;;;;;;;3.50;2.20;;;10.50;99.90;;;;;;5071467;28;20028;-81
2021/05/30 05:00:18;;;;;;;4.15;2.08;;;10.30;99.90;;;;;;5072791;28;20024;-82
2021/05/30 05:02:43;;;;;;;7.32;2.15;;;10.30;99.90;;;;;;5075285;28;20602;-82
2021/05/30 05:05:11;;;;;;;4.18;2.08;;;10.40;99.90;;;;;;5075165;28;20056;-81
2021/05/30 05:07:37;;;;;;;3.53;1.75;;;10.20;99.90;;;;;;5076385;28;20028;-81
2021/05/30 05:10:04;;;;;;;2.58;1.83;;;10.50;99.90;;;;;;5075122;28;20111;-82
2021/05/30 05:12:30;;;;;;;2.80;2.00;;;10.60;99.90;;;;;;5075024;28;20031;-82
2021/05/30 05:14:55;;;;;;;2.97;1.70;;;10.70;99.90;;;;;;5076260;28;20473;-82
2021/05/30 05:17:21;;;;;;;3.65;2.03;;;10.60;99.90;;;;;;5076157;28;20032;-81
2021/05/30 05:19:47;;;;;;;5.03;2.03;;;10.80;99.90;;;;;;5076135;28;20021;-81
2021/05/30 05:22:13;;;;;;;2.88;2.05;;;10.80;99.90;;;;;;5074901;28;20059;-81
2021/05/30 05:24:39;;;;;;;3.08;1.63;;;10.90;99.90;;;;;;5076073;28;20028;-82
2021/05/30 05:27:05;;;;;;;2.90;1.75;;;11.10;99.90;;;;;;5074762;28;20020;-82
2021/05/30 05:29:31;;;;;;;5.63;1.80;;;11.40;99.90;;;;;;5076054;28;20025;-82
2021/05/30 05:31:56;;;;;;;4.97;1.98;;;11.60;99.90;;;;;;5075920;28;20085;-82
2021/05/30 05:34:22;;;;;;;3.90;2.30;;;11.60;99.90;;;;;;5075722;28;20404;-82
2021/05/30 05:36:48;;;;;;;2.63;2.03;;;11.60;99.90;;;;;;5074529;28;20116;-81
2021/05/30 05:39:13;;;;;;;3.90;2.58;;;11.70;99.90;;;;;;5076085;28;20017;-82
2021/05/30 05:41:39;;;;;;;3.25;2.40;;;11.60;99.90;;;;;;5075784;28;20025;-82
2021/05/30 05:44:06;;;;;;;1.90;1.60;;;11.70;99.90;;;;;;5075970;28;20074;-82
2021/05/30 05:46:31;;;;;;;7.25;2.20;;;11.80;99.90;;;;;;5074372;28;20426;-82
2021/05/30 05:48:57;;;;;;;3.53;2.38;;;11.80;99.90;;;;;;5075956;28;20031;-82
2021/05/30 05:51:23;;;;;;;4.88;2.08;;;11.90;99.90;;;;;;5074346;28;20476;-82
2021/05/30 05:53:49;;;;;;;2.42;2.05;;;12.00;99.90;;;;;;5075568;28;20028;-81
2021/05/30 05:56:15;;;;;;;4.13;2.17;;;12.00;99.90;;;;;;5075415;28;20028;-81
2021/05/30 05:58:41;;;;;;;4.63;2.28;;;12.30;99.90;;;;;;5075434;28;20027;-81
2021/05/30 06:01:09;;;;;;;4.07;2.40;;;12.40;99.90;;;;;;5074139;28;20052;-82
2021/05/30 06:03:35;;;;;;;5.03;2.65;;;12.50;99.90;;;;;;5074108;28;20025;-81
2021/05/30 06:06:03;;;;;;;3.08;2.03;;;12.40;99.90;;;;;;5074030;28;20032;-81
2021/05/30 06:08:29;;;;;;;2.83;2.28;;;12.40;99.90;;;;;;5073910;28;20112;-81
2021/05/30 06:10:54;;;;;;;5.15;2.28;;;12.50;99.90;;;;;;5075261;28;20052;-81
2021/05/30 06:13:20;;;;;;;4.00;2.58;;;12.50;99.90;;;;;;5072986;28;20423;-81
2021/05/30 06:15:46;;;;;;;4.18;2.20;;;12.60;99.90;;;;;;5075158;28;20020;-81
2021/05/30 06:18:13;;;;;;;3.22;2.40;;;12.50;99.90;;;;;;5075007;28;20016;-81
2021/05/30 06:20:41;;;;;;;3.60;2.05;;;12.50;99.90;;;;;;5073758;28;20047;-81
2021/05/30 06:23:07;;;;;;;4.45;2.78;;;12.70;99.90;;;;;;5073716;28;20027;-81
2021/05/30 06:25:33;;;;;;;3.63;2.20;;;12.80;99.90;;;;;;5073642;28;20024;-81
2021/05/30 06:27:59;;;;;;;5.18;2.40;;;13.00;99.90;;;;;;5074904;28;20515;-81
2021/05/30 06:30:29;;;;;;;5.88;2.40;;;13.10;99.90;;;;;;5074814;28;20028;-81
2021/05/30 06:32:56;;;;;;;3.00;2.33;;;13.20;99.90;;;;;;5073386;28;20021;-81
2021/05/30 06:35:22;;;;;;;4.80;2.92;;;13.20;99.90;;;;;;5073517;28;20119;-81
2021/05/30 06:37:48;;;;;;;6.45;2.90;;;13.30;99.90;;;;;;5074619;28;20105;-80
2021/05/30 06:40:14;;;;;;;3.95;2.22;;;13.40;99.90;;;;;;5073322;28;20021;-81
2021/05/30 06:42:40;;;;;;;4.20;2.50;;;13.60;99.90;;;;;;5073357;28;20027;-81
2021/05/30 06:45:07;;;;;;;4.28;2.42;;;13.70;99.90;;;;;;5074570;28;20425;-81
2021/05/30 06:47:33;;;;;;;2.38;1.95;;;13.80;99.90;;;;;;5073175;28;20391;-80
2021/05/30 06:49:59;;;;;;;2.42;1.70;;;13.90;99.90;;;;;;5073167;28;20499;-80
2021/05/30 06:52:25;;;;;;;2.70;1.88;;;14.00;99.90;;;;;;5073153;28;20052;-80
2021/05/30 06:54:51;;;;;;;3.88;2.08;;;14.10;99.90;;;;;;5074312;28;20423;-80
2021/05/30 06:57:16;;;;;;;2.85;1.85;;;14.20;99.90;;;;;;5074234;28;20036;-80
2021/05/30 06:59:42;;;;;;;3.03;1.98;;;14.30;99.90;;;;;;5073003;28;20392;-80
2021/05/30 07:02:08;;;;;;;4.40;2.00;;;14.30;99.90;;;;;;5072941;28;20043;-80
2021/05/30 07:04:35;;;;;;;2.97;1.70;;;14.40;99.90;;;;;;5074162;28;20025;-81
2021/05/30 07:07:00;;;;;;;2.85;1.83;;;14.50;99.90;;;;;;5072946;28;20126;-80
2021/05/30 07:09:26;;;;;;;1.85;1.73;;;14.60;99.90;;;;;;5074083;28;20024;-80
2021/05/30 07:11:52;;;;;;;1.92;1.35;;;14.70;99.90;;;;;;5056110;28;20036;-80
2021/05/30 07:14:18;;;;;;;2.88;1.83;;;14.80;99.90;;;;;;5072739;28;20029;-80
2021/05/30 07:16:44;;;;;;;2.63;1.83;;;14.80;99.90;;;;;;5072639;28;20032;-80
2021/05/30 07:19:09;;;;;;;2.20;1.55;;;14.80;99.90;;;;;;5072606;28;20020;-80
2021/05/30 07:21:35;;;;;;;3.28;1.90;;;14.90;99.90;;;;;;5074125;28;20029;-80
2021/05/30 07:24:01;;;;;;;4.05;1.67;;;15.00;99.90;;;;;;5073794;28;20078;-80
2021/05/30 07:26:26;;;;;;;2.60;1.67;;;15.10;99.90;;;;;;5072363;28;20024;-80
2021/05/30 07:28:53;;;;;;;2.42;1.48;;;15.10;99.90;;;;;;5073713;28;20510;-80
2021/05/30 07:31:19;;;;;;;2.90;1.75;;;15.20;99.30;;;;;;5073647;28;20060;-80
2021/05/30 07:33:46;;;;;;;4.45;1.90;;;15.30;98.80;;;;;;5072183;28;20068;-80
2021/05/30 07:36:11;;;;;;;4.22;2.05;;;15.20;98.40;;;;;;5072298;28;20559;-80
2021/05/30 07:38:37;;;;;;;4.03;1.98;;;15.30;98.00;;;;;;5072312;28;20115;-80
2021/05/30 07:41:03;;;;;;;5.78;1.70;;;15.30;97.70;;;;;;5072292;28;20039;-80
2021/05/30 07:43:29;;;;;;;2.55;1.65;;;15.30;97.50;;;;;;5073793;28;20354;-80
2021/05/30 07:45:55;;;;;;;3.40;1.70;;;15.50;98.00;;;;;;5073364;28;20024;-83
2021/05/30 07:48:20;;;;;;;3.10;1.70;;;15.60;97.40;;;;;;5072146;28;20024;-83
2021/05/30 07:50:47;;;;;;;3.63;1.80;;;15.80;97.30;;;;;;5073707;28;20025;-83
2021/05/30 07:53:14;;;;;;;3.60;1.50;;;15.90;97.00;;;;;;5073371;28;20053;-83
2021/05/30 07:55:41;;;;;;;6.22;1.63;;;16.00;95.90;;;;;;5072047;28;20055;-83
2021/05/30 07:58:07;;;;;;;2.80;1.70;;;16.00;96.00;;;;;;5073299;28;20024;-83
2021/05/30 08:00:33;;;;;;;3.00;1.60;;;16.10;95.30;;;;;;5072083;28;20480;-83
2021/05/30 08:02:58;;;;;;;3.70;1.73;;;16.10;95.60;;;;;;5073569;28;20029;-83
2021/05/30 08:05:24;;;;;;;3.05;1.60;;;16.20;94.30;;;;;;5071989;28;20028;-83
2021/05/30 08:07:51;;;;;;;4.88;1.63;;;16.30;93.70;;;;;;5072035;28;20025;-84
2021/05/30 08:10:18;;;;;;;3.50;1.70;;;16.30;93.10;;;;;;5073208;28;20103;-82
2021/05/30 08:12:44;;;;;;;2.45;1.55;;;16.40;92.70;;;;;;5073236;28;20190;-84
2021/05/30 08:15:11;;;;;;;2.60;1.40;;;16.40;90.90;;;;;;5073211;28;20074;-83
2021/05/30 08:17:38;;;;;;;3.28;1.55;;;16.50;92.10;;;;;;5073086;28;20086;-83
2021/05/30 08:20:08;;;;;;;3.05;1.45;;;16.60;92.30;;;;;;5071889;28;20029;-83
2021/05/30 08:22:34;;;;;;;4.85;1.52;;;16.60;91.50;;;;;;5073125;28;20047;-83
2021/05/30 08:25:01;;;;;;;3.75;1.48;;;16.80;91.10;;;;;;5071764;28;20020;-83
2021/05/30 08:27:27;;;;;;;3.40;1.30;;;16.90;90.90;;;;;;5071774;28;20028;-84
2021/05/30 08:29:52;;;;;;;2.50;1.40;;;17.00;90.00;;;;;;5072961;28;20099;-85
2021/05/30 08:32:20;;;;;;;5.20;1.50;;;17.00;91.00;;;;;;5072966;28;20028;-84
2021/05/30 08:34:46;;;;;;;3.50;1.40;;;17.10;87.60;;;;;;5072776;28;20120;-84
2021/05/30 08:37:13;;;;;;;2.50;1.23;;;17.20;87.30;;;;;;5073179;28;20572;-83
2021/05/30 08:39:40;;;;;;;3.17;1.40;;;17.20;84.00;;;;;;5075730;28;20430;-84
2021/05/30 08:42:06;;;;;;;4.32;1.23;;;17.20;85.70;;;;;;5075702;28;20139;-84
2021/05/30 08:44:32;;;;;;;3.40;1.50;;;17.30;83.50;;;;;;5076846;28;20029;-84
2021/05/30 08:46:57;;;;;;;3.80;1.23;;;17.50;84.50;;;;;;5076724;28;20036;-83
2021/05/30 08:49:23;;;;;;;1.85;1.27;;;17.50;85.90;;;;;;5075447;28;20024;-83
2021/05/30 08:51:49;;;;;;;1.77;1.35;;;17.60;84.90;;;;;;5075412;28;20034;-85
2021/05/30 08:54:19;;;;;;;3.05;1.35;;;17.70;87.70;;;;;;5075396;28;20039;-84
2021/05/30 08:56:47;;;;;;;3.83;1.60;;;17.40;84.40;;;;;;5075264;28;20028;-83
2021/05/30 08:59:30;;;;;;;3.78;1.58;;;17.20;87.70;;;;;;5075283;28;20108;-84
2021/05/30 09:01:58;;;;;;;4.13;1.80;;;17.30;88.60;;;;;;5076478;28;20070;-84
2021/05/30 09:04:38;;;;;;;5.25;1.70;;;17.40;88.50;;;;;;5076681;28;20379;-83
2021/05/30 09:07:05;;;;;;;2.35;1.52;;;17.80;90.20;;;;;;5075199;28;20032;-83
2021/05/30 09:09:41;;;;;;;3.15;1.77;;;18.10;89.20;;;;;;5076382;28;20501;-84
2021/05/30 09:12:23;;;;;;;3.65;1.50;;;18.20;90.30;;;;;;5076325;28;20039;-84
2021/05/30 09:14:51;;;;;;;7.47;1.90;;;18.20;87.00;;;;;;5075023;28;20032;-84
2021/05/30 09:17:18;;;;;;;2.78;1.80;;;18.20;87.80;;;;;;5074899;28;20029;-84
2021/05/30 09:19:45;;;;;;;2.47;1.77;;;18.60;88.80;;;;;;5074945;28;20063;-84
2021/05/30 09:22:27;;;;;;;4.40;1.40;;;18.70;85.10;;;;;;5076448;28;20029;-83
2021/05/30 09:25:13;;;;;;;2.97;1.60;;;18.90;84.40;;;;;;5076162;28;20023;-84
2021/05/30 09:27:51;;;;;;;2.25;1.60;;;18.60;82.70;;;;;;5071176;28;20561;-85
2021/05/30 09:30:23;;;;;;;3.10;1.40;;;18.50;83.90;;;;;;5074724;28;20025;-85
2021/05/30 09:33:04;;;;;;;2.88;1.52;;;18.90;82.40;;;;;;5075898;28;20020;-85
2021/05/30 09:35:36;;;;;;;2.83;1.40;;;19.20;82.00;;;;;;5074743;28;20483;-87
2021/05/30 09:38:05;;;;;;;1.88;1.33;;;19.20;79.40;;;;;;5074542;28;20082;-84
2021/05/30 09:40:42;;;;;;;5.38;1.60;;;18.70;79.00;;;;;;5074503;28;20026;-86
2021/05/30 09:43:11;;;;;;;2.88;1.67;;;18.40;78.40;;;;;;5074549;28;20164;-85
2021/05/30 09:45:42;;;;;;;3.70;1.63;;;18.10;80.00;;;;;;5075722;28;20048;-84
2021/05/30 09:48:19;;;;;;;1.73;1.30;;;18.40;79.60;;;;;;5073332;28;20028;-85
2021/05/30 09:51:02;;;;;;;1.98;1.50;;;18.20;80.40;;;;;;5075631;28;20032;-85
2021/05/30 09:53:32;;;;;;;3.85;1.50;;;17.90;80.80;;;;;;5074348;28;20021;-84
2021/05/30 09:55:58;;;;;;;5.60;1.60;;;18.60;79.00;;;;;;5075839;28;20017;-85
2021/05/30 09:58:24;;;;;;;3.72;1.90;;;19.20;78.20;;;;;;5074135;28;20090;-85
2021/05/30 10:00:56;;;;;;;2.53;1.33;;;19.70;76.40;;;;;;5074212;28;20480;-85
2021/05/30 10:03:23;;;;;;;3.85;1.30;;;19.90;74.40;;;;;;5075679;28;20067;-85
2021/05/30 10:05:49;;;;;;;1.58;1.20;;;20.10;74.20;;;;;;5074026;28;20052;-84
2021/05/30 10:08:19;;;;;;;4.00;1.52;;;20.40;72.70;;;;;;5075441;28;20056;-84
2021/05/30 10:10:45;;;;;;;2.42;1.40;;;20.30;72.80;;;;;;5074062;28;20028;-84
2021/05/30 10:13:12;;;;;;;2.45;1.40;;;20.20;73.30;;;;;;5075299;28;20055;-84
2021/05/30 10:15:39;;;;;;;2.25;1.35;;;20.60;73.30;;;;;;5075195;28;20074;-85
2021/05/30 10:18:28;;;;;;;1.90;1.50;;;20.20;71.20;;;;;;5073750;28;20035;-84
2021/05/30 10:20:56;;;;;;;2.90;1.38;;;19.80;72.80;;;;;;5073815;28;20032;-84
2021/05/30 10:23:22;;;;;;;3.60;1.52;;;19.50;77.30;;;;;;5073736;28;20070;-85
2021/05/30 10:25:49;;;;;;;4.32;1.70;;;19.50;78.40;;;;;;5075242;28;20017;-84
2021/05/30 10:28:19;;;;;;;3.50;2.00;;;19.90;76.40;;;;;;5073649;28;20487;-84
2021/05/30 10:30:46;;;;;;;6.32;2.25;;;19.30;78.10;;;;;;5074802;28;20028;-84
2021/05/30 10:33:24;;;;;;;3.72;1.88;;;19.90;77.50;;;;;;5073282;28;20083;-84
2021/05/30 10:35:53;;;;;;;2.35;1.55;;;20.50;76.20;;;;;;5075027;28;20020;-83
2021/05/30 10:38:40;;;;;;;3.55;1.67;;;21.10;76.60;;;;;;5073363;28;20112;-84
2021/05/30 10:41:18;;;;;;;3.17;1.85;;;20.60;72.70;;;;;;5073398;28;20111;-85
2021/05/30 10:43:44;;;;;;;3.38;1.90;;;21.00;71.90;;;;;;5073428;28;20031;-84
2021/05/30 10:46:11;;;;;;;2.53;1.58;;;21.50;71.90;;;;;;5074509;28;20029;-83
2021/05/30 10:48:38;;;;;;;5.10;1.95;;;21.60;73.30;;;;;;5074494;28;20100;-85
2021/05/30 10:51:22;;;;;;;3.05;1.73;;;21.80;72.20;;;;;;5074489;28;20379;-84
2021/05/30 10:54:04;;;;;;;5.60;1.95;;;21.90;72.00;;;;;;5073189;28;20029;-84
2021/05/30 10:56:37;;;;;;;2.90;1.65;;;22.50;70.70;;;;;;5074356;28;20043;-84
2021/05/30 10:59:08;;;;;;;7.82;2.00;;;22.60;68.80;;;;;;5074389;28;20384;-84
2021/05/30 11:01:34;;;;;;;2.67;1.48;;;22.20;67.10;;;;;;5072867;28;20085;-85
2021/05/30 11:04:28;;;;;;;2.53;1.80;;;21.80;67.60;;;;;;5072972;28;20024;-85
2021/05/30 11:07:01;;;;;;;3.08;1.70;;;20.90;71.50;;;;;;5073986;28;20056;-85
2021/05/30 11:09:48;;;;;;;2.20;1.70;;;19.90;73.60;;;;;;5074399;28;20063;-85
2021/05/30 11:12:34;;;;;;;3.53;1.80;;;19.60;74.50;;;;;;5072774;28;20024;-83
2021/05/30 11:15:11;;;;;;;2.85;1.50;;;20.60;72.70;;;;;;5074053;28;20074;-84
2021/05/30 11:17:37;;;;;;;2.45;1.63;;;21.20;69.30;;;;;;5072656;28;20127;-86
2021/05/30 11:20:04;;;;;;;6.05;1.70;;;22.10;67.40;;;;;;5072663;28;20021;-84
2021/05/30 11:22:49;;;;;;;3.53;1.50;;;22.50;65.50;;;;;;5072844;28;20392;-85
2021/05/30 11:25:34;;;;;;;3.40;1.60;;;22.20;64.90;;;;;;5072563;28;20047;-85
2021/05/30 11:28:02;;;;;;;2.92;1.60;;;22.50;68.20;;;;;;5073121;28;20062;-84
2021/05/30 11:30:51;;;;;;;7.50;1.60;;;23.30;66.90;;;;;;5073711;28;20036;-84
2021/05/30 11:33:24;;;;;;;2.28;1.58;;;23.50;64.40;;;;;;5072149;28;20067;-84
2021/05/30 11:36:01;;;;;;;2.47;1.77;;;23.50;63.30;;;;;;5073694;28;20052;-84
2021/05/30 11:38:37;;;;;;;3.13;1.60;;;22.30;66.00;;;;;;5072296;28;20049;-85
2021/05/30 11:41:21;;;;;;;3.28;1.80;;;22.90;65.50;;;;;;5073625;28;20100;-84
2021/05/30 11:43:54;;;;;;;;;;;23.10;64.70;;;;;;5072693;28;20016;-84
2021/05/30 11:46:20;;;;;;;5.72;1.88;;;22.70;63.50;;;;;;5073739;28;19904;-84
2021/05/30 11:48:58;;;;;;;3.17;1.65;;;21.50;65.40;;;;;;5072232;28;20078;-85
2021/05/30 11:51:24;;;;;;;3.00;1.70;;;20.80;68.00;;;;;;5072223;28;20025;-84
2021/05/30 11:53:50;;;;;;;4.90;1.60;;;21.00;66.80;;;;;;5073678;28;20031;-84
2021/05/30 11:56:15;;;;;;;2.70;1.65;;;22.00;64.40;;;;;;5073307;28;20484;-84
2021/05/30 11:58:46;;;;;;;3.88;1.70;;;23.10;62.00;;;;;;5073346;28;20532;-84
2021/05/30 12:01:12;;;;;;;3.17;1.70;;;23.10;61.40;;;;;;5073295;28;20021;-84
2021/05/30 12:03:50;;;;;;;2.97;2.00;;;22.00;61.70;;;;;;5072036;28;20028;-84
2021/05/30 12:06:16;;;;;;;1.90;1.45;;;22.40;62.30;;;;;;5072030;28;20426;-82
2021/05/30 12:08:53;;;;;;;3.38;1.75;;;23.30;62.00;;;;;;5073543;28;20075;-85
2021/05/30 12:11:18;;;;;;;2.75;1.90;;;23.80;60.20;;;;;;5071157;28;20112;-85
2021/05/30 12:13:44;;;;;;;3.47;1.67;;;23.50;59.60;;;;;;5071945;28;20488;-85
2021/05/30 12:16:17;;;;;;;2.53;1.58;;;23.40;59.00;;;;;;5073191;28;20383;-85
2021/05/30 12:19:09;;;;;;;2.10;1.42;;;24.10;57.80;;;;;;5073197;28;20021;-85
2021/05/30 12:21:40;;;;;;;3.00;1.25;;;24.70;57.00;;;;;;5073529;28;20115;-85
2021/05/30 12:24:08;;;;;;;3.67;1.60;;;25.20;56.40;;;;;;5073110;28;20025;-85
2021/05/30 12:26:34;;;;;;;2.55;1.60;;;25.00;56.10;;;;;;5071800;28;20391;-85
2021/05/30 12:29:00;;;;;;;2.83;1.58;;;25.10;53.10;;;;;;5071849;28;20031;-85
2021/05/30 12:31:26;;;;;;;2.03;1.23;;;25.10;54.80;;;;;;5073079;28;20029;-85
2021/05/30 12:34:01;;;;;;;3.15;1.60;;;24.90;53.10;;;;;;5072963;28;20072;-87
2021/05/30 12:36:40;;;;;;;2.58;1.42;;;24.90;54.50;;;;;;5072848;28;20079;-87
2021/05/30 12:39:26;;;;;;;5.18;1.65;;;23.90;56.30;;;;;;5071790;28;20025;-87
2021/05/30 12:42:10;;;;;;;3.45;1.35;;;23.10;56.70;;;;;;5073376;28;20052;-88
2021/05/30 12:44:38;;;;;;;4.03;1.55;;;;;;;;;;5073021;28;20429;-86
2021/05/30 12:47:08;;;;;;;2.38;1.40;;;25.90;82.50;;;;;;5073228;28;20047;-87
2021/05/30 12:49:35;;;;;;;3.80;1.50;;;25.30;78.00;;;;;;5071857;28;20455;-88
2021/05/30 12:52:04;;;;;;;2.40;1.60;;;;;;;;;;5071610;28;20035;-88
2021/05/30 12:54:31;;;;;;;2.90;1.50;;;26.00;52.10;;;;;;5072948;28;20484;-86